Grafton, VT (05146)

6:32 AM EDT on August 29, 2015 (GMT -0400)
APRSWXNET | | Change Station
CLOSE
Current Station
Personal Weather Station
Location: West Townshend, VT
Elevation: 1799 ft
Nearby Weather Stations

Elev 1799 ft 43.11 °N, 72.68 °W | Updated 37 minutes ago

Overcast
Overcast
55 °F
Feels Like 55 °F
N
0
Wind Variable Wind from East
Gusts 0.0 mph

Today
High -- | Low -- °F
--% Chance of Precip.
Yesterday
High -- | Low -- °F
Precip. -- in
6:11 AM 7:30 PM
Full, 100% visible
Pressure 30.20 in
Visibility 0.2 miles
Clouds
Dew Point 53 °F
Humidity 92%
Rainfall in
Snow Depth Not available.
UV Not available.
Pollen 7.80 out of 12
Air Quality Not available.
Flu Activity Not available.
SPECI KVSF 291001Z AUTO 00000KT 1/4SM FG VV002 11/10 A3020 RMK AO2 T01060100
Pressure 30.20 in
Visibility 0.2 miles
Clouds
Dew Point 53 °F
Humidity 92%
Rainfall in
Snow Depth Not available.
UV Not available.
Pollen 7.80 out of 12
Air Quality Not available.
Flu Activity Not available.
SPECI KVSF 291001Z AUTO 00000KT 1/4SM FG VV002 11/10 A3020 RMK AO2 T01060100

10-Day Weather Forecast

×

Almanac

Astronomy

Aug. 29, 2015 Rise Set
Actual Time
Civil Twilight
Nautical Twilight
Astronomical Twilight
Moon
Length of Visible Light
Length of Day
Tomorrow will be .
, % of the Moon is Illuminated

Today's Extremes

State Highs State Lows

Community

WunderPhotos

Upload Photos

1,850,633 photos uploaded!

WunderBlogs® & News

Nearby

Air Quality

  Air Quality AQ Index Pollutant
Not available.

Snow Depth

Station Depth Elevation

Earthquake Activity

City Distance Mag. Time & Date
Minimum magnitude displayed is 2.5.

Coastal Water Temperatures

Place Temperature

Stations

Nearby Weather Stations

Station Location Temp. Windchill Dew Point Humidity Wind Precip. Elev Updated Type